Portland, Oregon
Traffic Map
Current Weather Conditions
Portland, Oregon
Broken Clouds
Broken Clouds
43°
Feels Like: 43°
Wind Chill: 43° Ceiling: 8000
Heat Index: 43° Visibility: 10mi
Dew Point: 39° Wind: 0mph
Humidity: 86% Direction: ° ()
Pressure: 30.36in Gusts: 0mph
Raw Report DataKPDX 121553Z 00000KT 10SM SCT045 BKN080 BKN230 06/04 A3036 RMK AO2 SLP278 T00610039
Traffic Incident Summary
Active as of:
Severity:
Category:
InformationThere was an issue retrieving the traffic information for this location. Please try a different location or try again shortly.
Advertisements